createdAt,value
2023-05-09T00:00:21.276Z,64.07
2023-05-09T00:01:21.237Z,64.36
2023-05-09T00:02:21.198Z,64.36
2023-05-09T00:03:21.198Z,64.60
2023-05-09T00:04:21.134Z,64.48
2023-05-09T00:05:21.047Z,64.37
2023-05-09T00:06:20.994Z,64.57
2023-05-09T00:07:20.932Z,64.81
2023-05-09T00:08:20.887Z,64.72
2023-05-09T00:09:20.845Z,64.62
2023-05-09T00:10:20.778Z,64.77
2023-05-09T00:11:20.737Z,64.77
2023-05-09T00:12:20.680Z,64.67
2023-05-09T00:13:20.664Z,64.47
2023-05-09T00:14:20.589Z,64.52
2023-05-09T00:15:20.608Z,64.55
2023-05-09T00:16:20.524Z,64.48
2023-05-09T00:17:20.460Z,64.57
2023-05-09T00:18:20.387Z,64.45
2023-05-09T00:19:20.413Z,64.26
2023-05-09T00:20:20.284Z,64.30
2023-05-09T00:21:20.236Z,64.35
2023-05-09T00:22:20.183Z,64.46
2023-05-09T00:23:20.142Z,64.24
2023-05-09T00:24:20.083Z,64.16
2023-05-09T00:25:20.042Z,64.54
2023-05-09T00:26:19.973Z,64.51
2023-05-09T00:27:19.956Z,64.67
2023-05-09T00:28:19.874Z,64.94
2023-05-09T00:29:19.833Z,64.93
2023-05-09T00:30:19.794Z,64.85
2023-05-09T00:31:19.825Z,64.91
2023-05-09T00:32:19.712Z,65.00
2023-05-09T00:33:19.651Z,64.68
2023-05-09T00:34:19.617Z,64.72
2023-05-09T00:35:19.590Z,64.89
2023-05-09T00:36:19.577Z,65.10
2023-05-09T00:37:19.566Z,65.14
2023-05-09T00:38:19.504Z,64.98
2023-05-09T00:39:19.479Z,64.85
2023-05-09T00:40:19.442Z,64.67
2023-05-09T00:41:19.422Z,64.64
2023-05-09T00:42:19.408Z,64.52
2023-05-09T00:43:19.377Z,64.62
2023-05-09T00:44:19.356Z,64.46
2023-05-09T00:45:19.333Z,64.91
2023-05-09T00:46:19.360Z,64.79
2023-05-09T00:47:19.365Z,64.61
2023-05-09T00:48:19.250Z,64.76
2023-05-09T00:49:19.226Z,64.68
2023-05-09T00:50:19.218Z,64.85
2023-05-09T00:51:19.193Z,64.81
2023-05-09T00:52:19.153Z,64.75
2023-05-09T00:53:19.109Z,64.94
2023-05-09T00:54:19.089Z,65.03
2023-05-09T00:55:19.028Z,64.87
2023-05-09T00:56:19.006Z,64.77
2023-05-09T00:57:18.975Z,64.69
2023-05-09T00:58:18.957Z,64.51
2023-05-09T00:59:18.922Z,64.46
2023-05-09T01:00:18.898Z,64.45
2023-05-09T01:01:18.924Z,64.32
2023-05-09T01:02:18.901Z,64.25
2023-05-09T01:03:19.047Z,64.15
2023-05-09T01:04:18.828Z,64.19
2023-05-09T01:05:18.798Z,64.31
2023-05-09T01:06:18.795Z,64.25
2023-05-09T01:07:18.769Z,64.19
2023-05-09T01:08:18.740Z,64.12
2023-05-09T01:09:18.728Z,64.06
2023-05-09T01:10:18.712Z,63.92
2023-05-09T01:11:18.691Z,63.78
2023-05-09T01:12:18.672Z,63.97
2023-05-09T01:13:18.714Z,64.07
2023-05-09T01:14:18.625Z,63.81
2023-05-09T01:15:18.628Z,63.78
2023-05-09T01:16:18.612Z,63.80
2023-05-09T01:17:18.568Z,64.04
2023-05-09T01:18:18.562Z,63.97
2023-05-09T01:19:18.638Z,64.09
2023-05-09T01:20:18.596Z,63.98
2023-05-09T01:21:18.510Z,63.91
2023-05-09T01:22:18.500Z,63.83
2023-05-09T01:23:18.491Z,63.81
2023-05-09T01:24:18.455Z,64.00
2023-05-09T01:25:18.436Z,64.08
2023-05-09T01:26:18.418Z,64.01
2023-05-09T01:27:18.403Z,64.09
2023-05-09T01:28:18.389Z,64.14
2023-05-09T01:29:18.365Z,64.00
2023-05-09T01:30:18.362Z,63.76
2023-05-09T01:31:18.349Z,63.71
2023-05-09T01:32:18.318Z,63.90
2023-05-09T01:33:18.310Z,64.20
2023-05-09T01:34:18.293Z,64.11
2023-05-09T01:35:18.361Z,64.05
2023-05-09T01:36:18.270Z,64.10
2023-05-09T01:37:18.239Z,64.03
2023-05-09T01:38:18.231Z,64.23
2023-05-09T01:39:18.216Z,64.30
2023-05-09T01:40:18.201Z,64.22
2023-05-09T01:41:18.206Z,64.25
2023-05-09T01:42:18.192Z,63.97
2023-05-09T01:43:18.184Z,63.94
2023-05-09T01:44:18.175Z,63.73
2023-05-09T01:45:18.230Z,63.77
2023-05-09T01:46:18.179Z,63.74
2023-05-09T01:47:18.135Z,63.75
2023-05-09T01:48:18.124Z,63.70
2023-05-09T01:49:18.133Z,64.04
2023-05-09T01:50:18.081Z,63.64
2023-05-09T01:51:18.154Z,63.59
2023-05-09T01:52:18.067Z,63.67
2023-05-09T01:53:18.058Z,63.60
2023-05-09T01:54:18.044Z,63.41
2023-05-09T01:55:18.061Z,63.50
2023-05-09T01:56:18.034Z,63.51
2023-05-09T01:57:18.047Z,63.53
2023-05-09T01:58:18.022Z,63.49
2023-05-09T01:59:18.022Z,63.35
2023-05-09T02:00:17.986Z,63.64
2023-05-09T02:01:18.042Z,63.56
2023-05-09T02:02:18.026Z,63.81
2023-05-09T02:03:18.027Z,63.69
2023-05-09T02:04:18.006Z,63.60
2023-05-09T02:05:18.030Z,63.62
2023-05-09T02:06:17.939Z,63.43
2023-05-09T02:07:17.991Z,63.53
2023-05-09T02:08:17.917Z,63.66
2023-05-09T02:09:17.908Z,63.59
2023-05-09T02:10:17.923Z,63.70
2023-05-09T02:11:17.908Z,63.57
2023-05-09T02:12:17.886Z,63.52
2023-05-09T02:13:18.048Z,63.59
2023-05-09T02:14:17.878Z,63.74
2023-05-09T02:15:17.877Z,63.94
2023-05-09T02:16:19.013Z,63.70
2023-05-09T02:17:17.867Z,63.65
2023-05-09T02:18:17.805Z,63.90
2023-05-09T02:19:17.801Z,64.03
2023-05-09T02:20:17.766Z,63.93
2023-05-09T02:21:17.798Z,63.98
2023-05-09T02:22:17.791Z,64.07
2023-05-09T02:23:17.835Z,64.00
2023-05-09T02:24:17.756Z,64.13
2023-05-09T02:25:17.737Z,64.12
2023-05-09T02:26:17.717Z,64.22
2023-05-09T02:27:17.711Z,64.26
2023-05-09T02:28:17.692Z,64.56
2023-05-09T02:29:17.692Z,64.51
2023-05-09T02:30:17.672Z,64.49
2023-05-09T02:31:17.681Z,64.66
2023-05-09T02:32:17.677Z,64.50
2023-05-09T02:33:17.656Z,64.47
2023-05-09T02:34:17.653Z,64.52
2023-05-09T02:35:17.636Z,64.71
2023-05-09T02:36:17.651Z,64.79
2023-05-09T02:37:17.636Z,64.55
2023-05-09T02:38:17.628Z,64.36
2023-05-09T02:39:17.681Z,64.40
2023-05-09T02:40:17.582Z,64.43
2023-05-09T02:41:17.591Z,64.46
2023-05-09T02:42:17.619Z,64.46
2023-05-09T02:43:17.601Z,64.36
2023-05-09T02:44:17.590Z,64.34
2023-05-09T02:45:17.568Z,64.47
2023-05-09T02:46:17.601Z,64.25
2023-05-09T02:47:17.576Z,64.25
2023-05-09T02:48:17.561Z,64.18
2023-05-09T02:49:31.628Z,64.25
2023-05-09T02:50:18.509Z,64.37
2023-05-09T02:51:17.462Z,64.45
2023-05-09T02:52:17.413Z,64.53
2023-05-09T02:53:17.366Z,64.54
2023-05-09T02:54:17.325Z,64.45
2023-05-09T02:55:17.567Z,64.55
2023-05-09T02:56:17.229Z,64.72
2023-05-09T02:57:17.251Z,64.57
2023-05-09T02:58:17.154Z,64.59
2023-05-09T02:59:17.109Z,64.56
2023-05-09T03:00:17.050Z,64.76
2023-05-09T03:01:17.021Z,64.74
2023-05-09T03:02:16.985Z,64.73
2023-05-09T03:03:17.122Z,64.80
2023-05-09T03:04:16.896Z,64.74
2023-05-09T03:05:16.953Z,64.59
2023-05-09T03:06:16.890Z,64.64
2023-05-09T03:07:16.884Z,64.63
2023-05-09T03:08:16.884Z,64.69
2023-05-09T03:09:16.873Z,64.58
2023-05-09T03:10:16.887Z,64.74
2023-05-09T03:11:16.942Z,64.57
2023-05-09T03:12:16.876Z,64.42
2023-05-09T03:13:16.914Z,64.40
2023-05-09T03:14:16.897Z,64.52
2023-05-09T03:15:16.897Z,64.56
2023-05-09T03:16:16.871Z,64.38
2023-05-09T03:17:16.870Z,64.04
2023-05-09T03:18:16.877Z,64.32
2023-05-09T03:19:16.838Z,64.08
2023-05-09T03:20:16.829Z,64.15
2023-05-09T03:21:16.829Z,64.20
2023-05-09T03:22:16.846Z,64.21
2023-05-09T03:23:16.845Z,64.12
2023-05-09T03:24:16.840Z,64.31
2023-05-09T03:25:17.121Z,64.15
2023-05-09T03:26:16.849Z,64.03
2023-05-09T03:27:16.907Z,64.20
2023-05-09T03:28:16.837Z,64.25
2023-05-09T03:29:16.810Z,64.08
2023-05-09T03:30:16.822Z,64.23
2023-05-09T03:31:16.837Z,64.30
2023-05-09T03:32:16.816Z,64.39
2023-05-09T03:33:16.823Z,64.30
2023-05-09T03:34:16.836Z,64.83
2023-05-09T03:35:16.950Z,64.72
2023-05-09T03:36:16.815Z,64.45
2023-05-09T03:37:16.805Z,64.38
2023-05-09T03:38:16.801Z,64.20
2023-05-09T03:39:16.812Z,64.25
2023-05-09T03:40:16.802Z,64.40
2023-05-09T03:41:16.807Z,64.27
2023-05-09T03:42:16.803Z,64.11
2023-05-09T03:43:16.866Z,64.15
2023-05-09T03:44:16.813Z,63.68
2023-05-09T03:45:16.869Z,63.40
2023-05-09T03:46:16.873Z,63.58
2023-05-09T03:47:16.868Z,63.76
2023-05-09T03:48:16.883Z,63.98
2023-05-09T03:49:16.897Z,64.25
2023-05-09T03:50:16.910Z,64.37
2023-05-09T03:51:16.921Z,64.22
2023-05-09T03:52:16.947Z,64.47
2023-05-09T03:53:16.945Z,64.30
2023-05-09T03:54:16.939Z,64.26
2023-05-09T03:55:16.988Z,64.10
2023-05-09T03:56:17.016Z,64.14
2023-05-09T03:57:16.945Z,63.94
2023-05-09T03:58:16.931Z,63.96
2023-05-09T03:59:17.007Z,64.06
2023-05-09T04:00:16.947Z,64.08
2023-05-09T04:01:16.928Z,63.96
2023-05-09T04:02:16.948Z,63.90
2023-05-09T04:03:16.978Z,63.93
2023-05-09T04:04:16.926Z,63.99
2023-05-09T04:05:17.267Z,63.91
2023-05-09T04:06:16.917Z,63.95
2023-05-09T04:07:16.935Z,63.97
2023-05-09T04:08:16.928Z,63.81
2023-05-09T04:09:16.920Z,63.82
2023-05-09T04:10:16.913Z,63.83
2023-05-09T04:11:16.920Z,64.11
2023-05-09T04:12:16.914Z,64.39
2023-05-09T04:13:16.992Z,64.19
2023-05-09T04:14:16.932Z,64.42
2023-05-09T04:15:17.103Z,64.47
2023-05-09T04:16:16.979Z,64.37
2023-05-09T04:17:16.960Z,64.47
2023-05-09T04:18:16.958Z,64.47
2023-05-09T04:19:16.974Z,63.91
2023-05-09T04:20:16.975Z,63.92
2023-05-09T04:21:16.977Z,63.83
2023-05-09T04:22:16.965Z,63.79
2023-05-09T04:23:16.967Z,63.51
2023-05-09T04:24:16.977Z,63.61
2023-05-09T04:25:17.136Z,63.42
2023-05-09T04:26:16.955Z,63.34
2023-05-09T04:27:16.953Z,63.49
2023-05-09T04:28:16.911Z,63.69
2023-05-09T04:29:16.919Z,63.62
2023-05-09T04:30:16.913Z,63.55
2023-05-09T04:31:17.035Z,63.75
2023-05-09T04:32:16.906Z,63.85
2023-05-09T04:33:16.850Z,64.11
2023-05-09T04:34:16.853Z,64.12
2023-05-09T04:35:18.889Z,64.07
2023-05-09T04:36:16.785Z,64.05
2023-05-09T04:37:16.754Z,64.16
2023-05-09T04:38:16.713Z,64.24
2023-05-09T04:39:16.668Z,64.12
2023-05-09T04:40:16.624Z,64.13
2023-05-09T04:41:16.562Z,63.58
2023-05-09T04:42:16.509Z,63.31
2023-05-09T04:43:16.477Z,63.47
2023-05-09T04:44:16.432Z,63.52
2023-05-09T04:45:16.570Z,63.73
2023-05-09T04:46:16.367Z,63.71
2023-05-09T04:47:16.379Z,63.57
2023-05-09T04:48:16.242Z,63.44
2023-05-09T04:49:16.200Z,63.42
2023-05-09T04:50:16.172Z,63.43
2023-05-09T04:51:16.128Z,63.39
2023-05-09T04:52:19.092Z,63.59
2023-05-09T04:53:16.291Z,63.65
2023-05-09T04:54:16.179Z,63.50
2023-05-09T04:55:16.394Z,63.93
2023-05-09T04:56:15.880Z,64.06
2023-05-09T04:57:18.597Z,64.05
2023-05-09T04:58:15.983Z,63.83
2023-05-09T04:59:16.000Z,63.25
2023-05-09T05:00:15.708Z,63.61
2023-05-09T05:01:16.566Z,62.73
2023-05-09T05:02:15.848Z,62.58
2023-05-09T05:03:15.648Z,62.34
2023-05-09T05:04:15.712Z,62.83
2023-05-09T05:05:15.486Z,63.09
2023-05-09T05:06:15.576Z,63.35
2023-05-09T05:07:15.576Z,63.53
2023-05-09T05:08:15.605Z,62.36
2023-05-09T05:09:15.847Z,62.10
2023-05-09T05:10:15.444Z,61.85
2023-05-09T05:11:15.261Z,61.82
2023-05-09T05:12:15.268Z,61.85
2023-05-09T05:13:15.261Z,61.89
2023-05-09T05:14:15.182Z,62.07
2023-05-09T05:15:15.416Z,62.62
2023-05-09T05:16:15.117Z,62.42
2023-05-09T05:17:15.078Z,62.36
2023-05-09T05:18:15.032Z,62.23
2023-05-09T05:19:15.072Z,62.08
2023-05-09T05:20:14.991Z,62.14
2023-05-09T05:21:14.951Z,62.14
2023-05-09T05:22:14.964Z,62.36
2023-05-09T05:23:14.872Z,62.58
2023-05-09T05:24:14.866Z,62.56
2023-05-09T05:25:15.228Z,62.84
2023-05-09T05:26:14.785Z,62.81
2023-05-09T05:27:14.740Z,62.73
2023-05-09T05:28:14.693Z,62.76
2023-05-09T05:29:14.649Z,62.86
2023-05-09T05:30:14.595Z,62.80
2023-05-09T05:31:14.598Z,62.84
2023-05-09T05:32:14.629Z,62.83
2023-05-09T05:33:14.603Z,62.71
2023-05-09T05:34:14.613Z,62.67
2023-05-09T05:35:15.080Z,62.61
2023-05-09T05:36:14.620Z,62.61
2023-05-09T05:37:14.631Z,62.65
2023-05-09T05:38:14.609Z,62.62
2023-05-09T05:39:14.618Z,62.50
2023-05-09T05:40:14.613Z,62.51
2023-05-09T05:41:14.609Z,62.51
2023-05-09T05:42:14.610Z,62.74
2023-05-09T05:43:14.600Z,62.31
2023-05-09T05:44:14.647Z,62.01
2023-05-09T05:45:14.765Z,61.27
2023-05-09T05:46:14.588Z,61.60
2023-05-09T05:47:14.563Z,61.74
2023-05-09T05:48:14.568Z,61.41
2023-05-09T05:49:14.550Z,61.40
2023-05-09T05:50:14.589Z,61.61
2023-05-09T05:51:14.627Z,61.78
2023-05-09T05:52:14.614Z,61.63
2023-05-09T05:53:14.535Z,61.12
2023-05-09T05:54:14.549Z,61.22
2023-05-09T05:55:14.758Z,60.95
2023-05-09T05:56:14.502Z,61.38
2023-05-09T05:57:15.109Z,61.27
2023-05-09T05:58:14.469Z,61.25
2023-05-09T05:59:14.461Z,60.93
2023-05-09T06:00:14.459Z,60.84
2023-05-09T06:01:14.483Z,60.75
2023-05-09T06:02:14.469Z,60.70
2023-05-09T06:03:14.512Z,60.71
2023-05-09T06:04:14.477Z,60.47
2023-05-09T06:05:14.555Z,60.49
2023-05-09T06:06:14.373Z,60.28
2023-05-09T06:07:14.407Z,60.33
2023-05-09T06:08:14.349Z,60.40
2023-05-09T06:09:14.303Z,60.50
2023-05-09T06:10:14.282Z,60.65
2023-05-09T06:11:14.250Z,60.68
2023-05-09T06:12:14.245Z,60.41
2023-05-09T06:13:14.235Z,60.38
2023-05-09T06:14:14.208Z,60.78
2023-05-09T06:15:14.230Z,60.92
2023-05-09T06:16:19.190Z,60.91
2023-05-09T06:17:15.101Z,60.86
2023-05-09T06:18:14.010Z,60.69
2023-05-09T06:19:13.957Z,60.25
2023-05-09T06:20:13.960Z,60.03
2023-05-09T06:21:13.859Z,59.86
2023-05-09T06:22:13.821Z,59.69
2023-05-09T06:23:13.856Z,59.54
2023-05-09T06:24:23.445Z,59.07
2023-05-09T06:25:14.895Z,58.81
2023-05-09T06:26:13.632Z,58.92
2023-05-09T06:27:13.592Z,59.19
2023-05-09T06:28:13.547Z,59.18
2023-05-09T06:29:13.497Z,58.95
2023-05-09T06:30:24.621Z,59.23
2023-05-09T06:31:14.457Z,59.30
2023-05-09T06:32:13.369Z,59.77
2023-05-09T06:33:13.320Z,59.63
2023-05-09T06:34:13.260Z,59.35
2023-05-09T06:35:13.537Z,59.28
2023-05-09T06:36:13.227Z,59.17
2023-05-09T06:37:13.117Z,59.17
2023-05-09T06:38:13.054Z,59.27
2023-05-09T06:39:13.091Z,59.39
2023-05-09T06:40:13.730Z,59.29
2023-05-09T06:41:12.902Z,59.63
2023-05-09T06:42:12.851Z,59.67
2023-05-09T06:43:12.772Z,59.70
2023-05-09T06:44:12.711Z,59.58
2023-05-09T06:45:12.839Z,59.64
2023-05-09T06:46:12.630Z,59.68
2023-05-09T06:47:12.554Z,59.70
2023-05-09T06:48:12.519Z,59.67
2023-05-09T06:49:12.440Z,59.66
2023-05-09T06:50:12.395Z,59.66
2023-05-09T06:51:12.350Z,59.12
2023-05-09T06:52:12.282Z,59.28
2023-05-09T06:53:12.236Z,59.75
2023-05-09T06:54:13.126Z,59.67
2023-05-09T06:55:12.369Z,59.86
2023-05-09T06:56:12.071Z,59.52
2023-05-09T06:57:12.020Z,59.66
2023-05-09T06:58:11.946Z,59.78
2023-05-09T06:59:11.890Z,59.38
2023-05-09T07:00:11.829Z,59.23
2023-05-09T07:01:11.815Z,59.23
2023-05-09T07:02:11.727Z,58.92
2023-05-09T07:03:11.741Z,59.21
2023-05-09T07:04:11.622Z,59.08
2023-05-09T07:05:11.710Z,59.16
2023-05-09T07:06:11.582Z,58.93
2023-05-09T07:07:11.530Z,59.38
2023-05-09T07:08:11.465Z,59.32
2023-05-09T07:09:11.439Z,59.38
2023-05-09T07:10:12.533Z,59.61
2023-05-09T07:11:11.413Z,59.79
2023-05-09T07:12:11.304Z,60.08
2023-05-09T07:13:11.306Z,60.25
2023-05-09T07:14:11.224Z,60.06
2023-05-09T07:15:11.427Z,60.09
2023-05-09T07:16:11.277Z,60.25
2023-05-09T07:17:22.697Z,59.58
2023-05-09T07:18:12.142Z,59.74
2023-05-09T07:19:11.023Z,59.84
2023-05-09T07:20:10.997Z,59.49
2023-05-09T07:21:10.920Z,59.47
2023-05-09T07:22:10.888Z,59.41
2023-05-09T07:23:10.807Z,59.41
2023-05-09T07:24:10.759Z,59.56
2023-05-09T07:25:10.695Z,59.48
2023-05-09T07:26:10.627Z,59.28
2023-05-09T07:27:10.644Z,58.97
2023-05-09T07:28:10.519Z,59.16
2023-05-09T07:29:10.485Z,58.48
2023-05-09T07:30:10.402Z,58.22
2023-05-09T07:31:10.355Z,58.16
2023-05-09T07:32:10.415Z,58.07
2023-05-09T07:33:10.278Z,57.65
2023-05-09T07:34:10.211Z,58.40
2023-05-09T07:35:10.129Z,59.57
2023-05-09T07:36:10.074Z,59.23
2023-05-09T07:37:10.038Z,59.78
2023-05-09T07:38:10.030Z,59.51
2023-05-09T07:39:09.999Z,59.52
2023-05-09T07:40:09.928Z,59.39
2023-05-09T07:41:09.879Z,59.20
2023-05-09T07:42:09.854Z,59.26
2023-05-09T07:43:09.911Z,59.27
2023-05-09T07:44:09.905Z,59.60
2023-05-09T07:45:10.643Z,59.31
2023-05-09T07:46:10.761Z,59.14
2023-05-09T07:47:09.851Z,58.86
2023-05-09T07:48:09.877Z,57.97
2023-05-09T07:49:09.867Z,57.24
2023-05-09T07:50:09.841Z,57.11
2023-05-09T07:51:09.784Z,57.31
2023-05-09T07:52:09.719Z,58.08
2023-05-09T07:53:09.708Z,57.49
2023-05-09T07:54:09.730Z,57.66
2023-05-09T07:55:09.753Z,58.50
2023-05-09T07:56:09.719Z,57.86
2023-05-09T07:57:10.235Z,58.00
2023-05-09T07:58:09.772Z,57.27
2023-05-09T07:59:09.779Z,57.31
2023-05-09T08:00:09.720Z,56.13
2023-05-09T08:01:09.688Z,56.92
2023-05-09T08:02:09.743Z,57.21
2023-05-09T08:03:09.926Z,57.18
2023-05-09T08:04:09.742Z,57.68
2023-05-09T08:05:09.652Z,58.11
2023-05-09T08:06:09.654Z,57.71
2023-05-09T08:07:09.660Z,57.52
2023-05-09T08:08:09.634Z,57.30
2023-05-09T08:09:09.624Z,57.35
2023-05-09T08:10:09.597Z,57.22
2023-05-09T08:11:09.681Z,57.41
2023-05-09T08:12:09.830Z,57.26
2023-05-09T08:13:09.974Z,57.24
2023-05-09T08:14:10.132Z,56.21
2023-05-09T08:15:11.386Z,56.10
2023-05-09T08:16:10.268Z,56.38
2023-05-09T08:17:10.231Z,56.10
2023-05-09T08:18:10.208Z,55.46
2023-05-09T08:19:10.158Z,55.84
2023-05-09T08:20:12.748Z,54.92
2023-05-09T08:21:10.056Z,54.95
2023-05-09T08:22:10.949Z,55.14
2023-05-09T08:23:09.894Z,54.32
2023-05-09T08:24:09.792Z,54.36
2023-05-09T08:25:09.696Z,54.50
2023-05-09T08:26:09.632Z,54.80
2023-05-09T08:27:09.535Z,56.98
2023-05-09T08:28:09.488Z,54.19
2023-05-09T08:29:09.413Z,54.17
2023-05-09T08:30:09.330Z,55.61
2023-05-09T08:31:09.358Z,54.77
2023-05-09T08:32:09.244Z,54.86
2023-05-09T08:33:09.261Z,54.71
2023-05-09T08:34:09.151Z,54.47
2023-05-09T08:35:09.283Z,54.26
2023-05-09T08:36:09.445Z,53.11
2023-05-09T08:37:09.547Z,53.15
2023-05-09T08:38:09.667Z,52.64
2023-05-09T08:39:09.784Z,52.62
2023-05-09T08:40:09.970Z,52.60
2023-05-09T08:41:10.093Z,52.77
2023-05-09T08:42:10.213Z,52.67
2023-05-09T08:43:10.325Z,50.64
2023-05-09T08:44:10.462Z,52.32
2023-05-09T08:45:11.314Z,51.18
2023-05-09T08:46:10.639Z,52.34
2023-05-09T08:47:10.589Z,51.57
2023-05-09T08:48:10.461Z,51.86
2023-05-09T08:49:10.403Z,51.39
2023-05-09T08:50:10.338Z,51.37
2023-05-09T08:51:10.276Z,50.80
2023-05-09T08:52:10.200Z,50.31
2023-05-09T08:53:10.142Z,49.08
2023-05-09T08:54:10.050Z,49.47
2023-05-09T08:55:10.073Z,49.08
2023-05-09T08:56:10.000Z,50.29
2023-05-09T08:57:09.907Z,49.81
2023-05-09T08:58:10.666Z,49.43
2023-05-09T08:59:09.760Z,49.67
2023-05-09T09:00:09.648Z,49.39
2023-05-09T09:01:09.633Z,48.68
2023-05-09T09:02:09.751Z,49.26
2023-05-09T09:03:10.847Z,49.24
2023-05-09T09:04:10.667Z,47.60
2023-05-09T09:05:19.659Z,48.36
2023-05-09T09:06:10.543Z,47.75
2023-05-09T09:07:09.445Z,48.64
2023-05-09T09:08:09.344Z,49.06
2023-05-09T09:09:09.308Z,49.63
2023-05-09T09:10:09.250Z,50.42
2023-05-09T09:11:09.165Z,49.02
2023-05-09T09:12:09.064Z,47.81
2023-05-09T09:13:09.020Z,49.06
2023-05-09T09:14:08.884Z,48.92
2023-05-09T09:15:08.838Z,50.19
2023-05-09T09:16:08.712Z,48.24
2023-05-09T09:17:08.574Z,46.74
2023-05-09T09:18:08.508Z,48.39
2023-05-09T09:19:08.446Z,48.54
2023-05-09T09:20:08.289Z,49.45
2023-05-09T09:21:08.145Z,48.16
2023-05-09T09:22:08.038Z,47.11
2023-05-09T09:23:07.950Z,47.19
2023-05-09T09:24:07.917Z,46.26
2023-05-09T09:25:08.051Z,46.66
2023-05-09T09:26:08.179Z,47.48
2023-05-09T09:27:08.285Z,47.28
2023-05-09T09:28:08.427Z,47.00
2023-05-09T09:29:08.521Z,45.01
2023-05-09T09:30:08.609Z,45.49
2023-05-09T09:31:08.719Z,46.63
2023-05-09T09:32:08.974Z,46.71
2023-05-09T09:33:09.090Z,47.90
2023-05-09T09:34:08.990Z,49.53
2023-05-09T09:35:09.217Z,48.50
2023-05-09T09:36:09.222Z,47.55
2023-05-09T09:37:09.362Z,47.51
2023-05-09T09:38:09.474Z,47.57
2023-05-09T09:39:09.605Z,48.45
2023-05-09T09:40:09.727Z,50.20
2023-05-09T09:41:09.859Z,49.47
2023-05-09T09:42:09.991Z,50.14
2023-05-09T09:43:10.104Z,50.40
2023-05-09T09:44:10.209Z,47.11
2023-05-09T09:45:10.314Z,45.93
2023-05-09T09:46:10.445Z,47.66
2023-05-09T09:47:10.586Z,47.13
2023-05-09T09:48:10.634Z,46.77
2023-05-09T09:49:10.690Z,46.11
2023-05-09T09:50:10.773Z,46.58
2023-05-09T09:51:10.926Z,45.27
2023-05-09T09:52:10.957Z,45.27
2023-05-09T09:53:11.041Z,44.80
2023-05-09T09:54:11.147Z,44.94
2023-05-09T09:55:11.229Z,44.32
2023-05-09T09:56:11.376Z,44.88
2023-05-09T09:57:11.446Z,45.62
2023-05-09T09:58:11.571Z,45.18
2023-05-09T09:59:11.684Z,44.70
2023-05-09T10:00:11.807Z,44.56
2023-05-09T10:01:11.940Z,43.84
2023-05-09T10:02:12.013Z,44.40
2023-05-09T10:03:12.137Z,44.54
2023-05-09T10:04:12.240Z,44.71
2023-05-09T10:05:12.269Z,45.05
2023-05-09T10:06:12.347Z,45.32
2023-05-09T10:07:14.912Z,43.96
2023-05-09T10:08:12.319Z,44.08
2023-05-09T10:09:12.220Z,43.34
2023-05-09T10:10:12.143Z,43.21
2023-05-09T10:11:11.969Z,43.11
2023-05-09T10:12:11.856Z,43.80
2023-05-09T10:13:11.759Z,45.03
2023-05-09T10:14:11.602Z,43.83
2023-05-09T10:15:11.490Z,43.89
2023-05-09T10:16:11.443Z,44.08
2023-05-09T10:17:11.344Z,45.39
2023-05-09T10:18:11.213Z,44.86
2023-05-09T10:19:11.014Z,44.42
2023-05-09T10:20:10.889Z,44.87
2023-05-09T10:21:10.772Z,44.90
2023-05-09T10:22:10.633Z,44.04
2023-05-09T10:23:10.598Z,45.41
2023-05-09T10:24:10.386Z,44.83
2023-05-09T10:25:10.270Z,45.47
2023-05-09T10:26:10.159Z,45.18
2023-05-09T10:27:10.038Z,45.72
2023-05-09T10:28:09.912Z,45.10
2023-05-09T10:29:09.798Z,44.54
2023-05-09T10:30:09.736Z,44.09
2023-05-09T10:31:09.565Z,44.45
2023-05-09T10:32:09.426Z,43.95
2023-05-09T10:33:09.375Z,42.81
2023-05-09T10:34:09.229Z,42.55
2023-05-09T10:35:09.086Z,41.91
2023-05-09T10:36:08.966Z,42.41
2023-05-09T10:37:08.863Z,43.20
2023-05-09T10:38:08.756Z,43.26
2023-05-09T10:39:08.732Z,42.40
2023-05-09T10:40:08.538Z,43.19
2023-05-09T10:41:08.434Z,43.43
2023-05-09T10:42:08.297Z,43.84
2023-05-09T10:43:08.303Z,44.04
2023-05-09T10:44:09.075Z,44.91
2023-05-09T10:45:07.945Z,44.96
2023-05-09T10:46:07.877Z,44.86
2023-05-09T10:47:07.742Z,44.35
2023-05-09T10:48:07.605Z,43.05
2023-05-09T10:49:07.493Z,42.90
2023-05-09T10:50:07.409Z,43.08
2023-05-09T10:51:07.279Z,42.99
2023-05-09T10:52:07.217Z,42.65
2023-05-09T10:53:07.351Z,42.53
2023-05-09T10:54:07.453Z,43.06
2023-05-09T10:55:07.622Z,42.84
2023-05-09T10:56:07.679Z,43.23
2023-05-09T10:57:07.760Z,43.34
2023-05-09T10:58:07.869Z,43.43
2023-05-09T10:59:07.964Z,43.09
2023-05-09T11:00:08.065Z,42.95
2023-05-09T11:01:08.203Z,41.52
2023-05-09T11:02:08.277Z,41.58
2023-05-09T11:03:08.453Z,41.76
2023-05-09T11:04:08.466Z,42.14
2023-05-09T11:05:08.653Z,42.12
2023-05-09T11:06:08.649Z,44.72
2023-05-09T11:07:08.741Z,44.16
2023-05-09T11:08:08.967Z,43.99
2023-05-09T11:09:08.978Z,43.80
2023-05-09T11:10:09.092Z,41.93
2023-05-09T11:11:09.296Z,41.80
2023-05-09T11:12:09.498Z,43.06
2023-05-09T11:13:09.547Z,43.40
2023-05-09T11:14:09.539Z,43.32
2023-05-09T11:15:09.715Z,42.63
2023-05-09T11:16:09.785Z,42.67
2023-05-09T11:17:09.945Z,42.79
2023-05-09T11:18:10.011Z,44.74
2023-05-09T11:19:11.858Z,44.11
2023-05-09T11:20:10.118Z,42.92
2023-05-09T11:21:10.007Z,42.44
2023-05-09T11:22:09.838Z,40.78
2023-05-09T11:23:09.806Z,41.00
2023-05-09T11:24:09.819Z,41.35
2023-05-09T11:25:09.605Z,41.57
2023-05-09T11:26:09.605Z,41.58
2023-05-09T11:27:09.464Z,43.74
2023-05-09T11:28:09.383Z,44.17
2023-05-09T11:29:09.283Z,42.60
2023-05-09T11:30:09.226Z,43.74
2023-05-09T11:31:09.159Z,43.69
2023-05-09T11:32:09.096Z,42.46
2023-05-09T11:33:08.934Z,42.61
2023-05-09T11:34:08.835Z,41.07
2023-05-09T11:35:08.756Z,41.54
2023-05-09T11:36:08.690Z,42.71
2023-05-09T11:37:08.557Z,41.82
2023-05-09T11:38:08.479Z,40.75
2023-05-09T11:39:08.423Z,42.13
2023-05-09T11:40:08.271Z,42.08
2023-05-09T11:41:08.154Z,42.30
2023-05-09T11:42:08.040Z,40.86
2023-05-09T11:43:07.972Z,40.90
2023-05-09T11:44:07.888Z,40.25
2023-05-09T11:45:07.937Z,40.55
2023-05-09T11:46:07.809Z,42.22
2023-05-09T11:47:07.651Z,40.18
2023-05-09T11:48:07.613Z,41.01
2023-05-09T11:49:07.790Z,39.45
2023-05-09T11:50:07.317Z,40.01
2023-05-09T11:51:07.272Z,39.35
2023-05-09T11:52:07.328Z,38.51
2023-05-09T11:53:07.491Z,38.19
2023-05-09T11:54:07.514Z,37.68
2023-05-09T11:55:08.022Z,39.57
2023-05-09T11:56:07.546Z,39.05
2023-05-09T11:57:07.410Z,37.38
2023-05-09T11:58:07.310Z,38.24
2023-05-09T11:59:07.241Z,37.17
2023-05-09T12:00:07.045Z,37.33
2023-05-09T12:01:06.923Z,35.62
2023-05-09T12:02:06.797Z,35.26
2023-05-09T12:03:06.813Z,35.19
2023-05-09T12:04:06.596Z,35.20
2023-05-09T12:05:06.346Z,35.66
2023-05-09T12:06:06.183Z,36.28
2023-05-09T12:07:06.020Z,35.33
2023-05-09T12:08:06.769Z,35.66
2023-05-09T12:09:05.723Z,35.86
2023-05-09T12:10:05.574Z,36.35
2023-05-09T12:11:05.411Z,35.12
2023-05-09T12:12:05.269Z,34.10
2023-05-09T12:13:05.128Z,33.47
2023-05-09T12:14:04.967Z,33.98
2023-05-09T12:15:04.909Z,34.18
2023-05-09T12:16:04.778Z,34.85
2023-05-09T12:17:04.824Z,33.94
2023-05-09T12:18:05.099Z,34.25
2023-05-09T12:19:05.129Z,33.41
2023-05-09T12:20:05.208Z,34.09
2023-05-09T12:21:05.351Z,34.71
2023-05-09T12:22:05.504Z,33.57
2023-05-09T12:23:05.530Z,33.50
2023-05-09T12:24:05.716Z,32.05
2023-05-09T12:25:05.812Z,31.46
2023-05-09T12:26:05.836Z,34.54
2023-05-09T12:27:06.020Z,31.33
2023-05-09T12:28:06.088Z,31.00
2023-05-09T12:29:06.155Z,32.96
2023-05-09T12:30:07.349Z,32.39
2023-05-09T12:31:06.321Z,30.38
2023-05-09T12:32:06.091Z,30.39
2023-05-09T12:33:06.022Z,30.69
2023-05-09T12:34:05.838Z,31.42
2023-05-09T12:35:05.700Z,31.62
2023-05-09T12:36:05.584Z,30.15
2023-05-09T12:37:05.400Z,31.49
2023-05-09T12:38:05.322Z,32.24
2023-05-09T12:39:05.186Z,32.04
2023-05-09T12:40:05.041Z,31.95
2023-05-09T12:41:04.877Z,32.42
2023-05-09T12:42:04.744Z,32.21
2023-05-09T12:43:04.733Z,31.20
2023-05-09T12:44:04.843Z,30.97
2023-05-09T12:45:04.986Z,31.88
2023-05-09T12:46:05.088Z,31.42
2023-05-09T12:47:05.302Z,31.15
2023-05-09T12:48:05.268Z,30.06
2023-05-09T12:49:05.420Z,28.05
2023-05-09T12:50:05.462Z,29.79
2023-05-09T12:51:05.665Z,30.56
2023-05-09T12:52:07.204Z,31.34